Time;durP1;ratioP1;P1;durP2;ratioP2;P2;SDS_P1;SDS_P2;PMS_P1;PMS_P2;Temp;Humidity;BMP_temperature;BMP_pressure;BME280_temperature;BME280_humidity;BME280_pressure;Samples;Min_cycle;Max_cycle;Signal;HPM_P1;HPM_P2
2023/12/11 00:01:14;;;;;;;4.60;1.40;;;6.30;99.90;;;;;;5073829;28;20201;-75
2023/12/11 00:03:41;;;;;;;4.77;1.70;;;6.20;99.90;;;;;;5073603;28;20197;-75
2023/12/11 00:06:09;;;;;;;3.37;1.57;;;6.20;99.90;;;;;;5073817;28;20205;-75
2023/12/11 00:08:36;;;;;;;2.77;1.50;;;6.20;99.90;;;;;;5073414;28;20254;-75
2023/12/11 00:11:03;;;;;;;5.90;1.77;;;6.20;99.90;;;;;;5073478;28;20243;-75
2023/12/11 00:13:30;;;;;;;5.33;2.20;;;6.20;99.90;;;;;;5073645;28;20227;-75
2023/12/11 00:15:57;;;;;;;5.77;1.93;;;6.20;99.90;;;;;;5073414;28;20243;-74
2023/12/11 00:18:23;;;;;;;2.43;1.37;;;6.20;99.90;;;;;;5073284;28;20197;-75
2023/12/11 00:20:50;;;;;;;1.87;1.20;;;6.20;99.90;;;;;;5073516;28;20270;-74
2023/12/11 00:23:18;;;;;;;6.53;1.80;;;6.30;99.90;;;;;;5073166;28;20201;-75
2023/12/11 00:25:46;;;;;;;4.87;1.63;;;6.30;99.90;;;;;;5073103;28;20202;-74
2023/12/11 00:28:13;;;;;;;3.70;1.60;;;6.30;99.90;;;;;;5073312;28;20291;-75
2023/12/11 00:30:40;;;;;;;3.50;1.60;;;6.30;99.90;;;;;;5073389;28;20201;-74
2023/12/11 00:33:07;;;;;;;3.23;1.70;;;6.30;99.90;;;;;;5073216;28;20203;-74
2023/12/11 00:35:34;;;;;;;4.07;1.70;;;6.30;99.90;;;;;;5073108;28;20267;-74
2023/12/11 00:38:00;;;;;;;4.43;1.60;;;6.30;99.90;;;;;;5072936;28;20233;-74
2023/12/11 00:40:28;;;;;;;3.03;1.73;;;6.30;99.90;;;;;;5072886;28;20193;-74
2023/12/11 00:42:55;;;;;;;2.53;1.73;;;6.30;99.90;;;;;;5072918;28;20193;-74
2023/12/11 00:45:22;;;;;;;2.83;1.83;;;6.40;99.90;;;;;;5073055;28;20197;-74
2023/12/11 00:47:48;;;;;;;4.20;1.70;;;6.40;99.90;;;;;;5072899;28;20202;-75
2023/12/11 00:50:15;;;;;;;2.63;1.70;;;6.50;99.90;;;;;;5072703;28;20228;-74
2023/12/11 00:52:41;;;;;;;3.93;2.00;;;6.50;99.90;;;;;;5072894;28;20201;-74
2023/12/11 00:55:09;;;;;;;1.90;1.70;;;6.50;99.90;;;;;;5073040;28;20204;-74
2023/12/11 00:57:37;;;;;;;4.10;2.00;;;6.60;99.90;;;;;;5072621;28;20777;-74
2023/12/11 01:00:05;;;;;;;3.07;1.77;;;6.60;99.90;;;;;;5072753;28;20204;-74
2023/12/11 01:02:32;;;;;;;3.07;1.83;;;6.60;99.90;;;;;;5072718;28;20207;-74
2023/12/11 01:04:58;;;;;;;3.07;1.80;;;6.60;99.90;;;;;;5072451;28;20771;-74
2023/12/11 01:07:25;;;;;;;4.60;2.03;;;6.60;99.90;;;;;;5072566;28;20227;-74
2023/12/11 01:09:51;;;;;;;4.00;1.77;;;6.50;99.90;;;;;;5072342;28;20204;-74
2023/12/11 01:12:19;;;;;;;3.37;1.83;;;6.60;99.90;;;;;;5072544;28;20726;-74
2023/12/11 01:14:46;;;;;;;4.43;2.10;;;6.50;99.90;;;;;;5072845;28;20193;-74
2023/12/11 01:17:13;;;;;;;4.63;2.20;;;6.60;99.90;;;;;;5072628;28;20217;-75
2023/12/11 01:19:41;;;;;;;3.17;2.10;;;6.60;99.90;;;;;;5072612;28;20201;-74
2023/12/11 01:22:08;;;;;;;2.27;1.83;;;6.60;99.90;;;;;;5072343;28;20193;-74
2023/12/11 01:24:35;;;;;;;3.43;2.00;;;6.60;99.90;;;;;;5072646;28;20322;-73
2023/12/11 01:27:01;;;;;;;2.67;1.60;;;6.70;99.90;;;;;;5072641;28;20275;-73
2023/12/11 01:29:28;;;;;;;4.27;2.70;;;6.70;99.90;;;;;;5072517;28;20254;-73
2023/12/11 01:31:57;;;;;;;4.03;1.70;;;6.80;99.90;;;;;;5072593;28;20250;-73
2023/12/11 01:34:23;;;;;;;3.70;1.97;;;6.80;99.90;;;;;;5072367;28;20254;-73
2023/12/11 01:36:50;;;;;;;4.37;1.80;;;6.80;99.90;;;;;;5072456;28;20229;-73
2023/12/11 01:39:17;;;;;;;2.30;1.80;;;6.90;99.90;;;;;;5072469;28;20205;-73
2023/12/11 01:41:43;;;;;;;3.20;1.97;;;7.00;99.90;;;;;;5072518;28;20254;-73
2023/12/11 01:44:10;;;;;;;2.53;1.60;;;7.00;99.90;;;;;;5072271;28;20258;-73
2023/12/11 01:46:37;;;;;;;2.57;1.83;;;7.00;99.90;;;;;;5072345;28;20263;-73
2023/12/11 01:49:05;;;;;;;4.27;1.70;;;7.00;99.90;;;;;;5072168;28;20278;-73
2023/12/11 01:51:31;;;;;;;5.00;2.07;;;7.10;99.90;;;;;;5072409;28;20201;-74
2023/12/11 01:53:58;;;;;;;3.57;1.93;;;7.10;99.90;;;;;;5072439;28;20255;-73
2023/12/11 01:56:25;;;;;;;2.23;1.87;;;7.20;99.90;;;;;;5072237;28;20326;-74
2023/12/11 01:58:52;;;;;;;1.80;1.63;;;7.20;99.90;;;;;;5072357;28;20595;-73
2023/12/11 02:01:22;;;;;;;5.00;1.97;;;7.30;99.90;;;;;;5072092;28;20197;-73
2023/12/11 02:03:50;;;;;;;3.70;2.10;;;7.40;99.90;;;;;;5071984;28;20533;-73
2023/12/11 02:06:18;;;;;;;3.17;1.70;;;7.50;99.90;;;;;;5072294;28;20205;-73
2023/12/11 02:08:45;;;;;;;3.47;1.70;;;7.40;99.90;;;;;;5072072;28;20857;-73
2023/12/11 02:11:12;;;;;;;2.03;1.67;;;7.50;99.90;;;;;;5072229;28;20222;-73
2023/12/11 02:13:40;;;;;;;2.10;1.70;;;7.50;99.90;;;;;;5072138;28;20295;-73
2023/12/11 02:16:07;;;;;;;2.30;1.87;;;7.50;99.90;;;;;;5071884;28;20267;-73
2023/12/11 02:18:34;;;;;;;2.73;1.80;;;7.60;99.90;;;;;;5072160;28;20657;-73
2023/12/11 02:21:01;;;;;;;4.33;1.97;;;7.70;99.90;;;;;;5072159;28;20201;-73
2023/12/11 02:23:39;;;;;;;2.93;2.10;;;7.70;99.90;;;;;;5075333;28;20205;-73
2023/12/11 02:26:13;;;;;;;2.10;1.70;;;7.70;99.90;;;;;;5075785;28;20720;-72
2023/12/11 02:28:40;;;;;;;2.17;1.73;;;7.70;99.90;;;;;;5075348;28;20197;-72
2023/12/11 02:31:07;;;;;;;4.07;1.80;;;7.60;99.90;;;;;;5075413;28;20711;-73
2023/12/11 02:33:34;;;;;;;2.93;1.60;;;7.50;99.90;;;;;;5075521;28;20201;-73
2023/12/11 02:36:00;;;;;;;2.53;1.67;;;7.60;99.90;;;;;;5075517;28;20193;-73
2023/12/11 02:38:27;;;;;;;2.97;1.60;;;7.60;99.90;;;;;;5075176;28;20229;-72
2023/12/11 02:40:54;;;;;;;3.40;2.13;;;7.60;99.90;;;;;;5075249;28;20545;-73
2023/12/11 02:43:22;;;;;;;3.50;1.60;;;7.60;99.90;;;;;;5075059;28;20594;-73
2023/12/11 02:45:48;;;;;;;4.07;2.00;;;7.50;99.90;;;;;;5075691;28;20537;-73
2023/12/11 02:48:15;;;;;;;1.83;1.40;;;7.60;99.90;;;;;;5075202;28;20224;-74
2023/12/11 02:50:42;;;;;;;3.37;1.60;;;7.50;99.90;;;;;;5074917;28;20233;-74
2023/12/11 02:53:09;;;;;;;2.13;1.40;;;7.50;99.90;;;;;;5075203;28;20197;-73
2023/12/11 02:55:35;;;;;;;2.33;1.60;;;7.60;99.90;;;;;;5075025;28;20197;-73
2023/12/11 02:58:03;;;;;;;3.07;1.40;;;7.60;99.90;;;;;;5075084;28;20228;-73
2023/12/11 03:00:32;;;;;;;2.67;1.43;;;7.60;99.90;;;;;;5075073;28;20290;-74
2023/12/11 03:02:59;;;;;;;2.73;1.53;;;7.60;99.90;;;;;;5074982;28;20197;-73
2023/12/11 03:05:25;;;;;;;1.50;1.37;;;7.60;99.90;;;;;;5074702;28;20650;-73
2023/12/11 03:07:52;;;;;;;1.40;1.30;;;7.60;99.90;;;;;;5074769;28;20234;-74
2023/12/11 03:10:19;;;;;;;2.30;1.60;;;7.60;99.90;;;;;;5074581;28;20202;-74
2023/12/11 03:12:46;;;;;;;2.83;1.40;;;7.60;99.90;;;;;;5074484;28;20656;-73
2023/12/11 03:15:14;;;;;;;2.10;1.37;;;7.50;99.90;;;;;;5074784;28;20199;-73
2023/12/11 03:17:41;;;;;;;1.60;1.40;;;7.50;99.90;;;;;;5074770;28;20235;-74
2023/12/11 03:20:11;;;;;;;3.07;1.57;;;7.50;99.90;;;;;;5074691;28;20252;-73
2023/12/11 03:22:38;;;;;;;2.77;1.43;;;7.60;99.90;;;;;;5074608;28;20203;-73
2023/12/11 03:25:05;;;;;;;2.40;1.27;;;7.50;99.90;;;;;;5075439;28;20715;-72
2023/12/11 03:27:32;;;;;;;3.20;1.57;;;7.60;99.90;;;;;;5095161;28;20201;-73
2023/12/11 03:29:58;;;;;;;2.37;1.20;;;7.60;99.90;;;;;;5094284;28;20193;-74
2023/12/11 03:32:25;;;;;;;3.77;1.43;;;7.70;99.90;;;;;;5077696;28;20722;-73
2023/12/11 03:34:53;;;;;;;1.83;1.30;;;7.80;99.90;;;;;;5074322;28;20566;-73
2023/12/11 03:37:20;;;;;;;3.43;1.67;;;7.80;99.90;;;;;;5073960;28;20679;-73
2023/12/11 03:39:46;;;;;;;3.53;1.73;;;7.90;99.90;;;;;;5074279;28;20205;-73
2023/12/11 03:42:13;;;;;;;1.60;1.40;;;7.90;99.90;;;;;;5074199;28;20250;-73
2023/12/11 03:44:39;;;;;;;1.77;1.40;;;8.00;99.90;;;;;;5074120;28;20231;-73
2023/12/11 03:47:06;;;;;;;4.53;1.67;;;7.90;99.90;;;;;;5073825;28;20684;-74
2023/12/11 03:49:33;;;;;;;4.07;1.30;;;7.80;99.90;;;;;;5073723;28;20704;-74
2023/12/11 03:52:01;;;;;;;1.93;1.40;;;7.70;99.90;;;;;;5073802;28;20208;-74
2023/12/11 03:54:28;;;;;;;1.70;1.30;;;7.70;99.90;;;;;;5073937;28;20209;-74
2023/12/11 03:56:54;;;;;;;1.90;1.50;;;7.60;99.90;;;;;;5073720;28;20644;-74
2023/12/11 03:59:22;;;;;;;1.50;1.30;;;7.60;99.90;;;;;;5073698;28;20228;-74
2023/12/11 04:01:48;;;;;;;3.27;1.30;;;7.40;99.90;;;;;;5073608;28;20258;-73
2023/12/11 04:04:15;;;;;;;2.53;1.57;;;7.40;99.90;;;;;;5073608;28;20197;-74
2023/12/11 04:06:41;;;;;;;4.53;1.70;;;7.40;99.90;;;;;;5073507;28;20227;-74
2023/12/11 04:09:09;;;;;;;3.70;1.63;;;7.30;99.90;;;;;;5073436;28;20611;-73
2023/12/11 04:11:36;;;;;;;4.80;1.90;;;7.40;99.90;;;;;;5073540;28;20204;-74
2023/12/11 04:14:03;;;;;;;2.93;1.60;;;7.40;99.90;;;;;;5073316;28;20709;-73
2023/12/11 04:16:29;;;;;;;2.30;1.40;;;7.40;99.90;;;;;;5073397;28;20200;-73
2023/12/11 04:18:56;;;;;;;3.13;1.50;;;7.50;99.90;;;;;;5073224;28;20253;-74
2023/12/11 04:21:23;;;;;;;1.40;1.30;;;7.60;99.90;;;;;;5073471;28;20203;-74
2023/12/11 04:23:49;;;;;;;3.47;1.30;;;7.50;99.90;;;;;;5073584;28;20266;-74
2023/12/11 04:26:17;;;;;;;3.13;2.23;;;7.40;99.90;;;;;;5073079;28;20197;-74
2023/12/11 04:28:44;;;;;;;3.20;1.87;;;7.30;99.90;;;;;;5073329;28;20219;-73
2023/12/11 04:31:11;;;;;;;2.73;1.60;;;7.30;99.90;;;;;;5073284;28;20200;-74
2023/12/11 04:33:38;;;;;;;3.33;1.93;;;7.30;99.90;;;;;;5073034;28;20666;-74
2023/12/11 04:36:08;;;;;;;1.97;1.40;;;7.30;99.90;;;;;;5073463;28;20209;-74
2023/12/11 04:38:34;;;;;;;1.57;1.30;;;7.40;99.90;;;;;;5073249;28;20322;-73
2023/12/11 04:41:01;;;;;;;2.80;1.40;;;7.40;99.90;;;;;;5073137;28;20243;-73
2023/12/11 04:43:29;;;;;;;3.70;1.70;;;7.40;99.90;;;;;;5072958;28;20208;-73
2023/12/11 04:45:55;;;;;;;4.70;1.80;;;7.40;99.90;;;;;;5072357;28;20197;-74
2023/12/11 04:48:23;;;;;;;4.47;1.73;;;7.40;99.90;;;;;;5072824;28;20706;-74
2023/12/11 04:50:49;;;;;;;4.67;2.03;;;7.40;99.90;;;;;;5072791;28;20229;-74
2023/12/11 04:53:16;;;;;;;3.43;1.73;;;7.40;99.90;;;;;;5073006;28;20204;-74
2023/12/11 04:55:43;;;;;;;3.20;1.90;;;7.40;99.90;;;;;;5072687;28;20718;-73
2023/12/11 04:58:09;;;;;;;6.13;3.57;;;7.30;99.90;;;;;;5072708;28;20229;-74
2023/12/11 05:00:37;;;;;;;2.67;1.50;;;7.40;99.90;;;;;;5072625;28;20246;-74
2023/12/11 05:03:04;;;;;;;9.27;5.03;;;7.40;99.90;;;;;;5072968;28;20624;-74
2023/12/11 05:05:31;;;;;;;5.33;2.07;;;7.40;99.90;;;;;;5072851;28;20243;-74
2023/12/11 05:07:57;;;;;;;3.07;1.90;;;7.50;99.90;;;;;;5072725;28;20250;-74
2023/12/11 05:10:24;;;;;;;4.30;1.67;;;7.40;99.90;;;;;;5072572;28;20201;-74
2023/12/11 05:12:50;;;;;;;3.77;1.60;;;7.40;99.90;;;;;;5072588;28;20198;-74
2023/12/11 05:15:17;;;;;;;5.47;1.60;;;7.50;99.90;;;;;;5072601;28;20197;-74
2023/12/11 05:17:45;;;;;;;6.13;2.60;;;7.60;99.90;;;;;;5072731;28;20615;-73
2023/12/11 05:20:12;;;;;;;3.57;1.93;;;7.70;99.90;;;;;;5072813;28;20600;-73
2023/12/11 05:22:39;;;;;;;5.30;1.83;;;7.80;99.90;;;;;;5072520;28;20640;-74
2023/12/11 05:25:07;;;;;;;3.57;1.77;;;7.90;99.90;;;;;;5072551;28;20570;-73
2023/12/11 05:27:34;;;;;;;5.00;1.83;;;7.90;99.90;;;;;;5072499;28;20200;-74
2023/12/11 05:30:00;;;;;;;2.90;1.60;;;8.00;99.90;;;;;;5072352;28;20620;-74
2023/12/11 05:32:27;;;;;;;4.43;1.80;;;8.00;99.90;;;;;;5072654;28;20234;-74
2023/12/11 05:34:55;;;;;;;7.80;2.03;;;8.00;99.90;;;;;;5072614;28;20202;-74
2023/12/11 05:37:22;;;;;;;7.37;2.20;;;8.10;99.90;;;;;;5072501;28;20246;-73
2023/12/11 05:39:48;;;;;;;4.07;1.60;;;8.10;99.90;;;;;;5072478;28;20235;-74
2023/12/11 05:42:15;;;;;;;4.00;1.93;;;8.10;99.90;;;;;;5072298;28;20552;-74
2023/12/11 05:44:41;;;;;;;4.73;1.67;;;8.20;99.90;;;;;;5072602;28;20246;-73
2023/12/11 05:47:08;;;;;;;6.57;1.70;;;8.10;99.90;;;;;;5072362;28;20238;-73
2023/12/11 05:49:35;;;;;;;5.80;3.13;;;8.20;99.90;;;;;;5072239;28;20235;-73
2023/12/11 05:52:03;;;;;;;4.50;2.00;;;8.00;99.90;;;;;;5072280;28;20220;-73
2023/12/11 05:54:30;;;;;;;6.63;2.50;;;8.00;99.90;;;;;;5072085;28;20679;-73
2023/12/11 05:56:57;;;;;;;5.50;2.57;;;8.00;99.90;;;;;;5074829;28;20205;-73
2023/12/11 05:59:23;;;;;;;5.47;2.27;;;7.90;99.90;;;;;;5076137;28;20229;-76
2023/12/11 06:01:50;;;;;;;5.37;1.90;;;7.90;99.90;;;;;;5076141;28;20223;-75
2023/12/11 06:04:17;;;;;;;3.57;1.77;;;7.70;99.90;;;;;;5076283;28;20196;-77
2023/12/11 06:06:43;;;;;;;3.00;2.10;;;7.50;99.90;;;;;;5075905;28;20193;-76
2023/12/11 06:09:13;;;;;;;4.30;2.03;;;7.30;99.90;;;;;;5075951;28;20222;-77
2023/12/11 06:11:40;;;;;;;3.50;1.83;;;7.20;99.90;;;;;;5075759;28;20249;-77
2023/12/11 06:14:07;;;;;;;4.17;2.27;;;7.20;99.90;;;;;;5075877;28;20205;-77
2023/12/11 06:16:33;;;;;;;3.60;2.10;;;7.20;99.90;;;;;;5075811;28;20237;-77
2023/12/11 06:19:00;;;;;;;3.43;2.40;;;7.20;99.90;;;;;;5075517;28;20227;-76
2023/12/11 06:21:27;;;;;;;4.20;2.27;;;7.20;99.90;;;;;;5075820;28;20204;-76
2023/12/11 06:23:53;;;;;;;6.50;2.50;;;7.20;99.90;;;;;;5075518;28;20197;-76
2023/12/11 06:26:28;;;;;;;9.73;3.83;;;7.20;99.90;;;;;;5075526;28;20648;-75
2023/12/11 06:28:57;;;;;;;8.47;4.00;;;7.30;99.90;;;;;;5075525;28;20591;-75
2023/12/11 06:31:24;;;;;;;3.93;2.40;;;7.30;99.90;;;;;;5075514;28;20266;-75
2023/12/11 06:33:50;;;;;;;7.53;2.90;;;7.30;99.90;;;;;;5075354;28;20193;-75
2023/12/11 06:36:17;;;;;;;4.47;2.87;;;7.30;99.90;;;;;;5075229;28;20225;-76
2023/12/11 06:38:44;;;;;;;7.30;2.77;;;7.30;99.90;;;;;;5075148;28;20755;-77
2023/12/11 06:41:11;;;;;;;6.17;3.33;;;7.30;99.90;;;;;;5075511;28;20204;-77
2023/12/11 06:43:39;;;;;;;6.30;2.90;;;7.30;99.90;;;;;;5075305;28;20196;-79
2023/12/11 06:46:05;;;;;;;3.03;2.70;;;7.40;99.90;;;;;;5075596;28;20254;-79
2023/12/11 06:48:32;;;;;;;3.93;2.90;;;7.40;99.90;;;;;;5075970;28;20193;-84
2023/12/11 06:50:59;;;;;;;4.53;2.70;;;7.50;99.90;;;;;;5075635;28;20197;-84
2023/12/11 06:53:25;;;;;;;4.07;2.50;;;7.50;99.90;;;;;;5075142;28;20260;-83
2023/12/11 06:55:52;;;;;;;5.03;2.60;;;7.60;99.90;;;;;;5075330;28;20254;-82
2023/12/11 06:58:18;;;;;;;5.60;2.77;;;7.60;99.90;;;;;;5075087;28;20217;-83
2023/12/11 07:00:46;;;;;;;4.53;2.90;;;7.70;99.90;;;;;;5075569;28;20197;-80
2023/12/11 07:03:13;;;;;;;3.83;2.67;;;7.60;99.90;;;;;;5075289;28;20196;-80
2023/12/11 07:05:41;;;;;;;4.77;3.07;;;7.70;99.90;;;;;;5074899;28;20718;-79
2023/12/11 07:08:08;;;;;;;3.03;2.20;;;7.70;99.90;;;;;;5074686;28;20193;-81
2023/12/11 07:10:35;;;;;;;4.70;2.63;;;7.70;99.90;;;;;;5075045;28;20201;-79
2023/12/11 07:13:02;;;;;;;5.50;3.03;;;7.60;99.90;;;;;;5074958;28;20286;-78
2023/12/11 07:15:29;;;;;;;4.27;2.37;;;7.60;99.90;;;;;;5074842;28;20197;-79
2023/12/11 07:17:58;;;;;;;3.90;2.70;;;7.60;99.90;;;;;;5074616;28;20652;-79
2023/12/11 07:20:24;;;;;;;3.90;2.40;;;7.70;99.90;;;;;;5074763;28;20221;-80
2023/12/11 07:22:51;;;;;;;3.47;2.70;;;7.70;99.90;;;;;;5074943;28;20209;-80
2023/12/11 07:25:18;;;;;;;6.37;4.07;;;7.70;99.90;;;;;;5074731;28;20238;-79
2023/12/11 07:27:45;;;;;;;2.93;2.63;;;7.80;99.90;;;;;;5074813;28;20280;-80
2023/12/11 07:30:14;;;;;;;4.53;3.03;;;7.70;99.90;;;;;;5074714;28;20660;-79
2023/12/11 07:32:40;;;;;;;4.70;2.70;;;7.80;99.90;;;;;;5074415;28;20201;-80
2023/12/11 07:35:11;;;;;;;6.20;2.50;;;7.80;99.90;;;;;;5074655;28;20210;-81
2023/12/11 07:37:40;;;;;;;2.90;2.20;;;7.80;99.90;;;;;;5074663;28;20201;-80
2023/12/11 07:40:08;;;;;;;3.47;2.30;;;7.80;99.90;;;;;;5074419;28;20232;-79
2023/12/11 07:42:34;;;;;;;3.10;2.33;;;7.90;99.90;;;;;;5074263;28;20193;-80
2023/12/11 07:45:01;;;;;;;3.83;2.17;;;7.90;99.90;;;;;;5074160;28;20201;-81
2023/12/11 07:47:28;;;;;;;3.37;2.50;;;7.90;99.90;;;;;;5074140;28;20197;-81
2023/12/11 07:49:54;;;;;;;5.27;3.27;;;7.90;99.90;;;;;;5073901;28;20235;-81
2023/12/11 07:52:22;;;;;;;3.80;3.00;;;7.90;99.90;;;;;;5074057;28;20200;-81
2023/12/11 07:54:49;;;;;;;5.07;3.20;;;7.90;99.90;;;;;;5073896;28;20607;-81
2023/12/11 07:57:16;;;;;;;2.60;2.37;;;7.90;99.90;;;;;;5074080;28;20263;-82
2023/12/11 07:59:42;;;;;;;3.77;2.60;;;7.90;99.90;;;;;;5073832;28;20220;-82
2023/12/11 08:02:09;;;;;;;4.40;2.57;;;7.90;99.90;;;;;;5073785;28;20216;-82
2023/12/11 08:04:38;;;;;;;3.70;2.40;;;7.90;99.90;;;;;;5073916;28;20659;-81
2023/12/11 08:07:05;;;;;;;4.23;2.70;;;7.80;99.90;;;;;;5074438;28;20201;-82
2023/12/11 08:09:37;;;;;;;4.37;2.57;;;7.90;99.90;;;;;;5074015;28;20204;-81
2023/12/11 08:12:05;;;;;;;6.50;2.70;;;7.90;99.90;;;;;;5073726;28;20334;-81
2023/12/11 08:14:31;;;;;;;3.53;2.60;;;7.90;99.90;;;;;;5073601;28;20201;-82
2023/12/11 08:16:58;;;;;;;4.80;2.83;;;8.00;99.90;;;;;;5073931;28;20211;-81
2023/12/11 08:19:25;;;;;;;2.60;2.20;;;8.00;99.90;;;;;;5072524;28;20612;-82
2023/12/11 08:21:52;;;;;;;3.53;2.40;;;8.10;99.90;;;;;;5073441;28;20266;-81
2023/12/11 08:24:19;;;;;;;3.87;2.47;;;8.00;99.90;;;;;;5073459;28;20197;-80
2023/12/11 08:26:47;;;;;;;2.90;2.10;;;8.00;99.90;;;;;;5073252;28;20204;-80
2023/12/11 08:29:14;;;;;;;2.60;2.37;;;8.00;99.90;;;;;;5073249;28;20706;-79
2023/12/11 08:31:40;;;;;;;2.70;2.30;;;8.00;99.90;;;;;;5073239;28;20206;-79
2023/12/11 08:34:07;;;;;;;4.53;2.20;;;8.10;99.90;;;;;;5073467;28;20233;-80
2023/12/11 08:36:34;;;;;;;2.63;1.93;;;8.10;99.90;;;;;;5073543;28;20296;-81
2023/12/11 08:39:01;;;;;;;3.23;2.17;;;8.10;99.90;;;;;;5072257;28;20223;-80
2023/12/11 08:41:28;;;;;;;2.83;2.17;;;8.20;99.90;;;;;;5066774;28;20244;-78
2023/12/11 08:43:56;;;;;;;2.77;2.00;;;8.30;99.90;;;;;;5052439;28;20202;-80
2023/12/11 08:46:23;;;;;;;2.77;1.97;;;8.30;99.90;;;;;;5085605;28;20228;-82
2023/12/11 08:48:49;;;;;;;2.97;2.03;;;8.40;99.90;;;;;;5091173;28;20279;-78
2023/12/11 08:51:18;;;;;;;1.80;1.40;;;8.50;99.90;;;;;;5093377;28;20257;-78
2023/12/11 08:53:45;;;;;;;2.13;1.70;;;8.50;99.90;;;;;;5092930;28;20656;-76
2023/12/11 08:56:12;;;;;;;2.00;1.50;;;8.50;99.90;;;;;;5092868;28;20197;-77
2023/12/11 08:58:38;;;;;;;3.10;1.80;;;8.50;99.90;;;;;;5093261;28;20199;-78
2023/12/11 09:01:07;;;;;;;2.20;1.50;;;8.50;99.90;;;;;;5093178;28;20256;-75
2023/12/11 09:03:33;;;;;;;2.57;1.67;;;8.50;99.90;;;;;;5093121;28;20232;-79
2023/12/11 09:06:00;;;;;;;2.57;1.20;;;8.40;99.90;;;;;;5093091;28;20231;-79
2023/12/11 09:08:27;;;;;;;3.10;1.50;;;8.50;99.90;;;;;;5092986;28;20230;-80
2023/12/11 09:10:54;;;;;;;2.23;1.50;;;8.40;99.90;;;;;;5092884;28;20257;-76
2023/12/11 09:13:20;;;;;;;1.80;1.53;;;8.50;99.90;;;;;;5092942;28;20231;-77
2023/12/11 09:15:47;;;;;;;4.13;1.60;;;8.40;99.90;;;;;;5093205;28;20645;-77
2023/12/11 09:18:15;;;;;;;2.90;1.80;;;8.40;99.90;;;;;;5092801;28;20204;-77
2023/12/11 09:20:42;;;;;;;2.77;1.47;;;8.50;99.90;;;;;;5092557;28;20220;-75
2023/12/11 09:23:09;;;;;;;3.43;1.40;;;8.60;99.90;;;;;;5092555;28;20192;-78
2023/12/11 09:25:36;;;;;;;4.47;1.50;;;8.60;99.90;;;;;;5090550;28;20341;-77
2023/12/11 09:28:04;;;;;;;3.87;1.60;;;8.60;99.90;;;;;;5089541;28;20655;-75
2023/12/11 09:30:30;;;;;;;3.00;1.37;;;8.80;99.90;;;;;;5089816;28;20306;-74
2023/12/11 09:32:57;;;;;;;1.53;1.40;;;8.90;99.90;;;;;;5093631;28;20200;-74
2023/12/11 09:35:25;;;;;;;3.53;1.47;;;8.90;99.90;;;;;;5093559;28;20261;-74
2023/12/11 09:37:52;;;;;;;2.30;1.30;;;8.80;99.90;;;;;;5093304;28;20196;-74
2023/12/11 09:40:19;;;;;;;3.23;1.60;;;8.80;99.90;;;;;;5093620;28;20568;-74
2023/12/11 09:42:47;;;;;;;3.53;1.70;;;8.90;99.90;;;;;;5093092;28;20808;-74
2023/12/11 09:45:18;;;;;;;2.10;1.43;;;9.20;99.90;;;;;;5093570;28;20533;-74
2023/12/11 09:47:48;;;;;;;3.87;1.50;;;9.40;99.90;;;;;;5093607;28;20204;-74
2023/12/11 09:50:14;;;;;;;3.37;1.80;;;9.60;99.90;;;;;;5093089;28;20970;-75
2023/12/11 09:52:43;;;;;;;2.53;1.33;;;9.60;99.90;;;;;;5093771;28;20329;-76
2023/12/11 09:55:10;;;;;;;2.33;1.40;;;9.50;99.90;;;;;;5093348;28;20200;-75
2023/12/11 09:57:38;;;;;;;2.80;1.43;;;9.40;99.90;;;;;;5093278;28;20203;-76
2023/12/11 10:00:06;;;;;;;2.60;1.43;;;9.50;99.90;;;;;;5093084;28;20695;-75
2023/12/11 10:02:33;;;;;;;1.80;1.50;;;9.40;99.90;;;;;;5093151;28;20208;-73
2023/12/11 10:05:05;;;;;;;3.70;1.60;;;9.60;99.90;;;;;;5092992;28;20192;-74
2023/12/11 10:07:32;;;;;;;2.83;1.40;;;9.60;99.90;;;;;;5092267;28;20676;-73
2023/12/11 10:10:00;;;;;;;2.83;1.33;;;9.80;99.90;;;;;;5092934;28;20196;-74
2023/12/11 10:12:39;;;;;;;2.23;1.53;;;10.40;99.90;;;;;;5093010;28;20196;-74
2023/12/11 10:15:07;;;;;;;4.73;1.60;;;10.50;99.90;;;;;;5093478;28;20307;-81
2023/12/11 10:17:34;;;;;;;2.07;1.30;;;10.60;99.90;;;;;;5092678;28;20205;-75
2023/12/11 10:20:00;;;;;;;2.33;1.30;;;11.10;99.90;;;;;;5075774;28;20228;-74
2023/12/11 10:22:29;;;;;;;2.93;1.53;;;11.80;99.90;;;;;;5074896;28;20197;-73
2023/12/11 10:24:56;;;;;;;3.77;1.40;;;11.50;99.90;;;;;;5075443;28;20208;-73
2023/12/11 10:27:24;;;;;;;1.93;1.13;;;10.70;99.90;;;;;;5075304;28;20197;-73
2023/12/11 10:30:07;;;;;;;1.93;1.40;;;10.50;99.90;;;;;;5075271;28;20259;-72
2023/12/11 10:32:33;;;;;;;3.03;1.50;;;12.10;99.90;;;;;;5075420;28;20201;-72
2023/12/11 10:35:00;;;;;;;1.87;1.20;;;12.70;99.90;;;;;;5075230;28;20664;-73
2023/12/11 10:37:30;;;;;;;4.83;1.50;;;12.60;99.90;;;;;;5075300;28;20197;-72
2023/12/11 10:39:58;;;;;;;2.17;1.40;;;13.00;99.90;;;;;;5075111;28;20642;-72
2023/12/11 10:42:26;;;;;;;3.53;1.40;;;13.40;99.90;;;;;;5073987;28;20201;-72
2023/12/11 10:44:54;;;;;;;2.47;1.33;;;12.40;99.90;;;;;;5074887;28;20670;-73
2023/12/11 10:47:21;;;;;;;4.53;1.53;;;13.10;99.90;;;;;;5075368;28;20258;-73
2023/12/11 10:49:48;;;;;;;4.43;1.50;;;13.00;99.90;;;;;;5075070;28;20236;-73
2023/12/11 10:52:16;;;;;;;3.27;1.33;;;13.50;99.90;;;;;;5074800;28;20235;-74
2023/12/11 10:54:42;;;;;;;3.23;1.37;;;13.60;99.90;;;;;;5074061;28;20628;-73
2023/12/11 10:57:12;;;;;;;2.27;1.30;;;14.10;99.90;;;;;;5074670;28;20243;-73
2023/12/11 10:59:41;;;;;;;2.53;1.50;;;13.10;99.90;;;;;;5075241;28;20266;-74
2023/12/11 11:02:09;;;;;;;4.30;1.50;;;11.90;99.90;;;;;;5075033;28;20201;-74
2023/12/11 11:04:40;;;;;;;4.77;1.60;;;11.80;99.90;;;;;;5074871;28;20599;-73
2023/12/11 11:07:14;;;;;;;3.10;1.60;;;12.30;99.90;;;;;;5074891;28;20640;-73
2023/12/11 11:09:50;;;;;;;4.23;1.63;;;11.80;99.90;;;;;;5074644;28;20232;-73
2023/12/11 11:12:27;;;;;;;2.27;1.33;;;11.60;99.90;;;;;;5074995;28;20197;-74
2023/12/11 11:14:55;;;;;;;4.20;1.90;;;11.50;99.90;;;;;;5074763;28;20559;-73
2023/12/11 11:17:22;;;;;;;3.67;1.50;;;12.00;99.90;;;;;;5074676;28;20193;-73
2023/12/11 11:20:12;;;;;;;6.13;2.67;;;11.50;99.90;;;;;;5074570;28;20623;-73
2023/12/11 11:22:39;;;;;;;4.10;1.53;;;11.60;99.90;;;;;;5074470;28;20197;-73
2023/12/11 11:25:31;;;;;;;5.47;1.73;;;12.60;99.90;;;;;;5074472;28;20193;-73
2023/12/11 11:27:58;;;;;;;3.27;1.60;;;12.40;99.90;;;;;;5074460;28;20201;-72
2023/12/11 11:30:52;;;;;;;5.97;2.13;;;13.10;99.90;;;;;;5074103;28;20197;-75
2023/12/11 11:33:20;;;;;;;4.60;1.70;;;13.40;99.90;;;;;;5074341;28;20247;-75
2023/12/11 11:35:54;;;;;;;9.20;2.23;;;12.90;99.90;;;;;;5074125;28;20287;-74
2023/12/11 11:38:22;;;;;;;5.17;1.93;;;14.00;99.90;;;;;;5073980;28;20201;-73
2023/12/11 11:40:51;;;;;;;4.10;1.70;;;15.30;99.90;;;;;;5073682;28;20684;-72
2023/12/11 11:43:18;;;;;;;3.73;1.60;;;15.50;99.90;;;;;;5074133;28;20239;-74
2023/12/11 11:45:45;;;;;;;5.60;1.73;;;15.30;99.90;;;;;;5074008;28;20307;-74
2023/12/11 11:48:13;;;;;;;3.35;1.60;;;14.80;99.90;;;;;;5073747;28;20717;-73
2023/12/11 11:50:54;;;;;;;5.20;2.00;;;15.20;99.90;;;;;;5073754;28;20565;-74
2023/12/11 11:53:22;;;;;;;6.30;2.00;;;15.50;99.90;;;;;;5070764;28;20201;-72
2023/12/11 11:55:48;;;;;;;5.83;1.87;;;15.30;99.90;;;;;;5070893;28;20278;-73
2023/12/11 11:58:16;;;;;;;6.22;1.95;;;15.30;99.90;;;;;;5070151;28;20200;-74
2023/12/11 12:00:45;;;;;;;5.47;1.70;;;15.80;99.90;;;;;;5070430;28;20229;-73
2023/12/11 12:03:13;;;;;;;3.50;1.90;;;16.10;99.90;;;;;;5070466;28;20208;-73
2023/12/11 12:05:53;;;;;;;4.22;1.80;;;16.70;99.90;;;;;;5070112;28;20197;-73
2023/12/11 12:08:20;;;;;;;4.13;1.73;;;15.40;99.90;;;;;;5070040;28;20262;-73
2023/12/11 12:10:47;;;;;;;5.70;1.90;;;14.80;99.90;;;;;;5071035;28;20201;-74
2023/12/11 12:13:13;;;;;;;4.13;1.53;;;13.90;99.90;;;;;;5072018;28;20604;-75
2023/12/11 12:15:42;;;;;;;5.53;1.87;;;13.20;99.90;;;;;;5072864;28;20271;-76
2023/12/11 12:18:09;;;;;;;7.20;2.00;;;12.70;99.90;;;;;;5073396;28;20280;-74
2023/12/11 12:20:38;;;;;;;7.53;1.93;;;12.60;99.90;;;;;;5073386;28;20250;-74
2023/12/11 12:23:06;;;;;;;7.70;2.17;;;12.40;99.90;;;;;;5073261;28;20201;-74
2023/12/11 12:25:34;;;;;;;6.57;2.10;;;12.40;99.90;;;;;;5073333;28;20207;-73
2023/12/11 12:28:03;;;;;;;5.10;2.00;;;12.10;99.90;;;;;;5073267;28;20208;-73
2023/12/11 12:30:30;;;;;;;4.13;1.80;;;12.30;99.90;;;;;;5073230;28;20201;-74
2023/12/11 12:32:58;;;;;;;4.43;2.00;;;11.90;99.90;;;;;;5073144;28;20205;-73
2023/12/11 12:35:26;;;;;;;9.43;2.23;;;11.60;99.90;;;;;;5073256;28;20242;-74
2023/12/11 12:37:55;;;;;;;7.93;2.20;;;11.50;99.90;;;;;;5073208;28;20255;-73
2023/12/11 12:40:22;;;;;;;8.03;2.10;;;11.60;99.90;;;;;;5073075;28;20229;-74
2023/12/11 12:42:49;;;;;;;6.27;2.27;;;11.50;99.90;;;;;;5073175;28;20197;-74
2023/12/11 12:45:25;;;;;;;5.83;2.20;;;11.80;99.90;;;;;;5073150;28;20587;-74
2023/12/11 12:47:52;;;;;;;7.23;2.10;;;14.10;99.90;;;;;;5073317;28;20295;-74
2023/12/11 12:50:20;;;;;;;5.27;1.97;;;15.20;99.90;;;;;;5072911;28;20232;-74
2023/12/11 12:52:46;;;;;;;6.32;2.40;;;16.70;99.90;;;;;;5073201;28;20205;-74
2023/12/11 12:55:14;;;;;;;9.18;2.42;;;16.20;99.90;;;;;;5073014;28;20197;-74
2023/12/11 12:57:43;;;;;;;7.13;2.10;;;16.20;99.90;;;;;;5074565;28;20718;-74